Meath Environmental Platform

Observations

Time Sensor AQI SAQ Temp °C Hum % Pres Pa CO μg/m³ H₂S μg/m³ NO μg/m³ NO₂ μg/m³ O₃ μg/m³ SO₂ μg/m³ CO₂e PPM VOC PPM PM1 μg/m³ PM2.5 μg/m³ PM4 μg/m³ PM10 μg/m³ TPS µm
Wednesday 12 August 2026
18:01 Trim Patrick St 3 38.2 30 69,824 0 0 0 13.56 80.94 24.79 4.57 10.89 11.98
18:00 Trim Patrick St 3 38.1 30 69,787 0 6.44 0 13.44 94.51 26.12 3.71 10.08 11.09
17:59 Trim Patrick St 3 38 29 69,791 0 0 0 13.69 82.51 24.89 3.71 10.14 11.15
17:57 Trim Patrick St 3 38 29 69,776 0 2.9 0 15.24 65.79 23.95 3.71 10.13 11.15
17:56 Trim Patrick St 3 37.9 30 69,754 0 5.14 0 14.03 75.56 25.12 5.43 11.72 12.89
17:56 Trim Market St 3 34.4 32 66,543 0 14.69 0.06 18.33 82.07 0.2 2.14 5.37 5.82
17:55 Trim Market St 3 34.5 32 66,547 0 14.5 0.05 19.6 84.89 0 1.43 4.29 4.72
17:54 Trim Market St 3 34.5 32 66,552 0 13.42 0.05 16.87 96.67 0 2.85 5.92 6.51
17:53 Trim Patrick St 3 37.8 30 69,760 0 10.82 0 15.69 94.46 25.14 3.71 10.09 11.1
17:53 Trim Market St 3 34.6 32 66,560 0 14.54 0.03 19.97 76.04 0.37 2.14 5.38 5.92
17:52 Trim Market St 3 34.6 32 66,570 0 11.3 0.03 15.76 77.92 0 2.85 5.93 6.67
17:51 Trim Patrick St 3 37.7 30 69,764 0 0 0 12.98 88.64 24.86 4.57 11.72 12.89
17:51 Trim Market St 3 34.6 32 66,584 0 12.14 0.04 14.9 80.09 0.09 2.85 5.38 5.92
17:50 Trim Market St 3 34.6 32 66,568 0 14.49 0.04 15.75 87.27 0.2 2.85 5.93 6.52
17:49 Trim Market St 3 34.7 32 66,580 0 16.69 0.03 20.34 91.42 0.16 2.14 5.39 5.93
17:48 Trim Market St 3 34.7 32 66,594 0 14.78 0.04 18.76 93.28 0.32 3.56 6.48 6.67
17:47 Trim Market St 3 34.7 32 66,586 0 13.67 0.04 19.17 78.54 0 2.85 5.4 5.82
17:46 Trim Patrick St 3 37.2 30 69,772 0 7.64 0.02 13.13 73.32 24.47 3.71 10.06 11.06
17:46 Trim Market St 3 34.8 32 66,574 0 13.72 0.04 17.82 82.02 0.08 2.14 4.86 5.35
17:45 Trim Patrick St 3 37.1 31 69,791 0 9.36 0.05 15.04 98.72 24.77 3.71 10.03 11.03